Time;durP1;ratioP1;P1;durP2;ratioP2;P2;SDS_P1;SDS_P2;PMS_P1;PMS_P2;Temp;Humidity;BMP_temperature;BMP_pressure;BME280_temperature;BME280_humidity;BME280_pressure;Samples;Min_cycle;Max_cycle;Signal;HPM_P1;HPM_P2
2023/02/24 00:02:51;;;;;;;13.23;7.97;;;;;;;-6.32;57.37;145772.91;5077481;28;20078;-65
2023/02/24 00:05:17;;;;;;;14.68;7.95;;;;;;;-6.25;58.74;145789.34;5077855;28;20044;-64
2023/02/24 00:07:43;;;;;;;17.75;8.25;;;;;;;-6.12;59.22;145820.97;5079859;28;20028;-65
2023/02/24 00:10:10;;;;;;;16.02;8.40;;;;;;;-6.15;58.89;145814.63;5078554;28;20147;-64
2023/02/24 00:12:35;;;;;;;15.07;9.10;;;;;;;-6.10;59.74;145826.00;5079298;28;20024;-64
2023/02/24 00:15:01;;;;;;;18.05;9.10;;;;;;;-6.09;59.63;145829.78;5077437;28;20016;-63
2023/02/24 00:17:29;;;;;;;15.25;8.80;;;;;;;-6.14;57.86;145817.19;5077250;28;20503;-65
2023/02/24 00:19:55;;;;;;;14.55;8.65;;;;;;;-6.11;60.60;145823.50;5075470;28;20020;-64
2023/02/24 00:22:21;;;;;;;15.60;9.68;;;;;;;-6.17;59.68;145809.59;5078188;28;20032;-64
2023/02/24 00:24:46;;;;;;;13.52;7.97;;;;;;;-6.03;60.01;145843.69;5074229;28;20025;-64
2023/02/24 00:27:12;;;;;;;14.43;8.85;;;;;;;-5.98;58.41;145855.13;5077150;28;20032;-63
2023/02/24 00:29:39;;;;;;;15.40;9.13;;;;;;;-5.89;59.26;145877.81;5078492;28;20111;-66
2023/02/24 00:32:05;;;;;;;13.18;8.55;;;;;;;-5.99;58.80;145852.56;5079421;28;20032;-64
2023/02/24 00:34:34;;;;;;;13.13;8.63;;;;;;;-6.10;59.11;145827.28;5078781;28;20036;-64
2023/02/24 00:37:00;;;;;;;14.23;7.65;;;;;;;-5.90;58.46;145875.25;5077189;28;20062;-64
2023/02/24 00:39:32;;;;;;;11.27;6.75;;;;;;;-5.88;58.09;145880.34;5074089;28;20579;-65
2023/02/24 00:42:04;;;;;;;13.18;8.20;;;;;;;-5.97;57.42;145858.84;5078111;28;20036;-65
2023/02/24 00:44:35;;;;;;;14.73;8.10;;;;;;;-6.15;58.05;145813.38;5065615;28;20104;-64
2023/02/24 00:47:03;;;;;;;12.55;7.25;;;;;;;-5.96;56.88;145860.09;5057725;28;20129;-64
2023/02/24 00:49:30;;;;;;;10.95;6.32;;;;;;;-5.98;57.94;145856.38;5079100;28;20040;-63
2023/02/24 00:51:57;;;;;;;10.15;6.75;;;;;;;-6.01;57.29;145847.50;5082038;28;20431;-64
2023/02/24 00:54:27;;;;;;;12.32;7.38;;;;;;;-6.04;59.00;145839.91;5082391;28;20021;-63
2023/02/24 00:56:53;;;;;;;11.07;7.07;;;;;;;-5.98;57.76;145855.13;5081795;28;20021;-63
2023/02/24 00:59:19;;;;;;;10.73;7.57;;;;;;;-6.13;57.26;145818.41;5081793;28;20032;-63
2023/02/24 01:01:45;;;;;;;11.88;7.22;;;;;;;-6.15;57.98;145814.63;5083278;28;20020;-64
2023/02/24 01:04:12;;;;;;;11.70;7.68;;;;;;;-6.17;57.06;145808.31;5081616;28;20039;-65
2023/02/24 01:06:49;;;;;;;11.50;8.00;;;;;;;-6.21;58.25;145798.19;5082214;28;20020;-65
2023/02/24 01:09:19;;;;;;;11.95;7.47;;;;;;;-6.19;56.46;145803.25;5079812;28;20036;-65
2023/02/24 01:14:33;;;;;;;11.38;7.70;;;;;;;-6.17;58.61;145809.59;5077484;28;20032;-64
2023/02/24 01:17:00;;;;;;;11.70;7.75;;;;;;;-5.97;58.65;145858.84;5064900;28;20029;-65
2023/02/24 01:19:29;;;;;;;12.63;7.80;;;;;;;-6.30;57.52;145776.69;5081896;28;20028;-64
2023/02/24 01:21:56;;;;;;;13.93;8.50;;;;;;;-6.04;57.79;145839.91;5082306;28;20032;-63
2023/02/24 01:24:23;;;;;;;12.10;7.05;;;;;;;-6.04;57.74;145841.22;5063966;28;20021;-65
2023/02/24 01:26:49;;;;;;;12.82;7.85;;;;;;;-6.10;57.71;145827.28;5081519;28;20058;-63
2023/02/24 01:29:15;;;;;;;12.07;7.43;;;;;;;-6.01;56.77;145848.78;5081319;28;20044;-62
2023/02/24 01:31:42;;;;;;;10.65;7.72;;;;;;;-6.01;56.44;145848.78;5082010;28;20033;-64
2023/02/24 01:34:09;;;;;;;12.68;8.00;;;;;;;-6.04;58.96;145839.91;5081377;28;20313;-62
2023/02/24 01:36:36;;;;;;;13.98;8.02;;;;;;;-5.93;57.85;145868.97;5081245;28;20027;-62
2023/02/24 01:39:04;;;;;;;12.65;7.63;;;;;;;-5.98;56.45;145855.13;5080987;28;20025;-62
2023/02/24 01:41:30;;;;;;;11.90;8.13;;;;;;;-6.02;57.37;145846.25;5081034;28;20024;-63
2023/02/24 01:44:28;;;;;;;12.68;7.80;;;;;;;-6.03;56.43;145843.69;5082663;28;20087;-63
2023/02/24 01:46:54;;;;;;;14.88;7.95;;;;;;;-5.89;58.72;145877.81;5044525;28;20100;-64
2023/02/24 01:49:43;;;;;;;12.50;7.63;;;;;;;-5.98;56.18;145855.13;5080527;28;20052;-64
2023/02/24 01:52:11;;;;;;;15.00;8.25;;;;;;;-5.80;58.93;145900.59;5080218;28;20040;-64
2023/02/24 01:54:56;;;;;;;14.75;8.10;;;;;;;-6.02;56.68;145845.00;5081201;28;20024;-64
2023/02/24 01:57:24;;;;;;;10.20;6.85;;;;;;;-5.90;55.62;145876.56;5080516;28;20047;-64
2023/02/24 01:59:52;;;;;;;12.20;7.55;;;;;;;-5.95;55.84;145862.66;5081236;28;20024;-64
2023/02/24 02:02:20;;;;;;;13.75;7.55;;;;;;;-6.16;55.45;145812.09;5077180;28;21635;-64
2023/02/24 02:05:08;;;;;;;12.65;8.13;;;;;;;-6.04;54.95;145841.22;5082578;28;20024;-64
2023/02/24 02:07:37;;;;;;;12.73;7.88;;;;;;;-6.15;56.04;145814.63;5078174;28;20096;-64
2023/02/24 02:10:05;;;;;;;11.65;6.90;;;;;;;-6.09;56.54;145829.78;5079772;28;20047;-65
2023/02/24 02:12:37;;;;;;;12.02;7.70;;;;;;;-6.03;54.95;145842.44;5081051;28;20204;-64
2023/02/24 02:15:05;;;;;;;13.77;7.72;;;;;;;-6.11;56.78;145824.75;5080802;28;20052;-64
2023/02/24 02:18:06;;;;;;;14.57;8.32;;;;;;;-6.12;54.69;145820.97;5055620;28;20021;-63
2023/02/24 02:20:56;;;;;;;12.43;7.15;;;;;;;-6.14;57.77;145817.19;5072254;28;20051;-63
2023/02/24 02:23:43;;;;;;;15.85;7.93;;;;;;;-6.22;55.67;145795.69;5080398;28;20044;-64
2023/02/24 02:26:27;;;;;;;12.38;7.15;;;;;;;-6.09;54.91;145829.78;5077393;28;20028;-63
2023/02/24 02:29:24;;;;;;;11.82;8.15;;;;;;;-6.20;55.64;145800.72;5081699;28;20197;-64
2023/02/24 02:32:04;;;;;;;11.98;8.07;;;;;;;-6.27;55.95;145785.56;5081450;28;20051;-65
2023/02/24 02:34:45;;;;;;;12.73;7.47;;;;;;;-6.25;55.65;145790.59;5080425;28;20032;-64
2023/02/24 02:37:49;;;;;;;10.30;7.07;;;;;;;-6.21;55.44;145798.19;5080840;28;20025;-64
2023/02/24 02:40:28;;;;;;;11.15;7.35;;;;;;;-6.26;56.37;145786.81;5071095;28;20050;-65
2023/02/24 02:43:35;;;;;;;17.42;8.90;;;;;;;-6.21;56.25;145798.19;5079419;28;20025;-64
2023/02/24 02:46:36;;;;;;;13.20;7.97;;;;;;;-6.29;56.17;145779.25;4997327;28;20085;-63
2023/02/24 02:49:31;;;;;;;12.47;7.60;;;;;;;-6.53;56.51;145719.84;5075942;28;20059;-64
2023/02/24 02:52:04;;;;;;;12.20;7.50;;;;;;;-6.51;56.38;145724.88;5076477;28;20031;-64
2023/02/24 02:55:02;;;;;;;13.02;8.20;;;;;;;-6.37;56.87;145760.28;5080726;28;20025;-64
2023/02/24 02:57:32;;;;;;;11.57;7.20;;;;;;;-6.38;57.84;145757.75;5064837;28;20048;-63
2023/02/24 03:00:12;;;;;;;11.00;7.47;;;;;;;-6.49;56.23;145731.19;5079669;28;20208;-64
2023/02/24 03:02:44;;;;;;;12.48;7.35;;;;;;;-6.45;58.08;145741.31;5062862;28;20020;-63
2023/02/24 03:05:16;;;;;;;10.57;6.97;;;;;;;-6.46;56.81;145737.53;5080008;28;20028;-62
2023/02/24 03:07:48;;;;;;;11.65;8.10;;;;;;;-6.29;57.44;145779.25;5079801;28;20055;-64
2023/02/24 03:10:22;;;;;;;14.85;7.63;;;;;;;-6.25;59.43;145789.34;5079139;28;20036;-63
2023/02/24 03:12:57;;;;;;;15.15;7.85;;;;;;;-6.05;57.13;145837.41;5075073;28;20024;-64
2023/02/24 03:15:26;;;;;;;11.80;7.80;;;;;;;-6.13;57.57;145819.72;5075767;28;20028;-64
2023/02/24 03:18:00;;;;;;;12.43;7.47;;;;;;;-6.22;56.66;145795.69;5074725;28;20020;-63
2023/02/24 03:20:35;;;;;;;11.82;7.75;;;;;;;-6.21;56.87;145799.47;5070303;28;20197;-64
2023/02/24 03:23:15;;;;;;;11.32;7.80;;;;;;;-6.18;57.54;145805.81;5077391;28;20020;-62
2023/02/24 03:25:53;;;;;;;10.05;7.07;;;;;;;-6.20;57.26;145800.72;5080408;28;20031;-63
2023/02/24 03:28:32;;;;;;;12.32;7.90;;;;;;;-6.37;57.60;145759.00;5078730;28;20104;-64
2023/02/24 03:31:06;;;;;;;15.77;7.88;;;;;;;-6.21;58.11;145799.47;5058494;28;20029;-63
2023/02/24 03:33:43;;;;;;;15.98;8.60;;;;;;;-6.25;57.32;145790.59;5075587;28;20028;-65
2023/02/24 03:36:13;;;;;;;13.52;8.15;;;;;;;-6.41;57.26;145750.19;5072430;28;20084;-63
2023/02/24 03:38:41;;;;;;;14.38;8.80;;;;;;;-6.31;59.19;145774.22;5076821;28;20058;-63
2023/02/24 03:41:10;;;;;;;15.13;8.70;;;;;;;-6.49;58.80;145729.94;5075166;28;20031;-63
2023/02/24 03:43:46;;;;;;;14.35;8.32;;;;;;;-6.37;57.77;145759.00;5079816;28;20035;-65
2023/02/24 03:46:15;;;;;;;14.13;8.52;;;;;;;-6.68;58.53;145684.44;5077366;28;20056;-63
2023/02/24 03:48:47;;;;;;;14.25;9.52;;;;;;;-6.54;58.96;145718.59;5079172;28;20032;-63
2023/02/24 03:51:16;;;;;;;;;;;;;;;-6.54;57.86;145718.59;5059379;28;20037;-64
2023/02/24 03:54:10;;;;;;;16.02;9.25;;;;;;;-6.59;59.48;145707.16;5075874;28;19908;-63
2023/02/24 03:57:05;;;;;;;15.50;9.40;;;;;;;-6.67;59.42;145685.69;5061546;28;20088;-63
2023/02/24 03:59:57;;;;;;;14.25;8.20;;;;;;;-6.61;58.77;145700.91;5073463;28;20324;-63
2023/02/24 04:02:26;;;;;;;;;;;;;;;-6.54;59.03;145717.28;5077926;28;20048;-64
2023/02/24 04:05:19;;;;;;;14.18;8.90;;;;;;;-6.69;58.79;145681.91;5062409;28;19927;-63
2023/02/24 04:08:03;;;;;;;12.20;7.53;;;;;;;-6.61;58.95;145702.13;5079065;28;20347;-63
2023/02/24 04:10:52;;;;;;;14.52;8.55;;;;;;;-6.63;58.96;145695.81;5078878;28;20024;-64
2023/02/24 04:13:34;;;;;;;12.32;7.85;;;;;;;-6.78;60.83;145659.19;5061114;28;20138;-63
2023/02/24 04:16:03;;;;;;;;;;;;;;;-6.53;60.43;145719.84;5080010;28;20040;-63
2023/02/24 04:18:31;;;;;;;12.68;7.88;;;;;;;-6.64;60.31;145694.56;5070839;28;19975;-65
2023/02/24 04:20:59;;;;;;;11.90;7.70;;;;;;;-6.67;60.74;145685.69;5078270;28;20028;-63
2023/02/24 04:23:32;;;;;;;11.80;8.00;;;;;;;-6.60;59.64;145703.38;5071037;28;20035;-63
2023/02/24 04:26:00;;;;;;;14.43;8.18;;;;;;;-6.59;59.82;145705.94;5076045;28;20054;-64
2023/02/24 04:28:28;;;;;;;13.35;7.90;;;;;;;-6.67;60.45;145685.69;5079035;28;20048;-64
2023/02/24 04:31:00;;;;;;;13.23;8.52;;;;;;;-6.55;59.30;145714.78;5078468;28;20029;-63
2023/02/24 04:33:26;;;;;;;14.07;8.35;;;;;;;-6.72;59.49;145673.09;5078290;28;20044;-64
2023/02/24 04:35:52;;;;;;;14.80;8.02;;;;;;;-6.58;61.34;145708.47;5079143;28;20055;-63
2023/02/24 04:38:18;;;;;;;12.63;8.00;;;;;;;-6.59;59.76;145705.94;5079132;28;20047;-63
2023/02/24 04:40:44;;;;;;;14.73;8.00;;;;;;;-6.69;60.15;145681.91;5079098;28;20027;-63
2023/02/24 04:43:10;;;;;;;15.77;8.45;;;;;;;-6.63;60.06;145695.81;5077233;28;20055;-64
2023/02/24 04:45:38;;;;;;;12.77;8.27;;;;;;;-6.61;59.97;145700.91;5077611;28;20407;-63
2023/02/24 04:48:09;;;;;;;16.23;9.02;;;;;;;-6.52;59.83;145722.38;5077414;28;20090;-63
2023/02/24 04:50:35;;;;;;;14.82;9.05;;;;;;;-6.53;60.92;145721.06;5070339;28;20103;-64
2023/02/24 04:53:08;;;;;;;13.60;8.15;;;;;;;-6.71;59.83;145675.59;5079191;28;20029;-64
2023/02/24 04:55:47;;;;;;;13.60;8.57;;;;;;;-6.72;60.89;145673.09;5068968;28;20368;-65
2023/02/24 04:58:18;;;;;;;13.38;8.77;;;;;;;-6.72;60.41;145673.09;5077897;28;20028;-64
2023/02/24 05:00:51;;;;;;;16.02;8.30;;;;;;;-6.62;60.20;145698.34;5072619;28;20286;-66
2023/02/24 05:03:21;;;;;;;13.10;8.00;;;;;;;-6.68;61.17;145684.44;5068172;28;20313;-65
2023/02/24 05:05:51;;;;;;;12.63;9.02;;;;;;;-6.53;61.11;145719.84;5071144;28;20027;-64
2023/02/24 05:08:18;;;;;;;12.45;8.18;;;;;;;-6.50;60.21;145728.69;5076823;28;20147;-64
2023/02/24 05:10:45;;;;;;;14.10;8.02;;;;;;;-6.82;60.60;145650.31;5076210;28;20036;-65
2023/02/24 05:13:26;;;;;;;13.60;8.50;;;;;;;-6.83;61.00;145646.53;5077186;28;20138;-65
2023/02/24 05:16:04;;;;;;;14.13;8.45;;;;;;;-6.79;60.66;145657.88;5075048;28;20328;-64
2023/02/24 05:18:35;;;;;;;11.13;7.75;;;;;;;-6.47;61.10;145734.97;5077384;28;20063;-64
2023/02/24 05:23:53;;;;;;;14.30;9.02;;;;;;;-6.57;60.74;145710.97;5073161;28;20031;-65
2023/02/24 05:26:22;;;;;;;13.70;8.15;;;;;;;-6.53;60.39;145719.84;5077345;28;20020;-64
2023/02/24 05:28:51;;;;;;;13.05;8.30;;;;;;;-6.43;60.02;145745.09;5077968;28;20020;-65
2023/02/24 05:31:27;;;;;;;14.38;8.30;;;;;;;-6.55;61.22;145716.03;5072423;28;20115;-63
2023/02/24 05:34:01;;;;;;;14.27;8.43;;;;;;;-6.49;60.64;145731.19;5073352;28;20024;-63
2023/02/24 05:36:30;;;;;;;13.07;8.32;;;;;;;-6.61;60.77;145700.91;5059002;28;20024;-63
2023/02/24 05:38:57;;;;;;;14.63;7.93;;;;;;;-6.42;60.06;145748.88;5059980;28;20024;-63
2023/02/24 05:41:31;;;;;;;14.02;8.23;;;;;;;-6.47;60.59;145736.28;5081619;28;20058;-65
2023/02/24 05:43:58;;;;;;;14.35;8.77;;;;;;;-6.36;61.50;145761.53;5079282;28;20020;-65
2023/02/24 05:46:32;;;;;;;12.95;8.35;;;;;;;-6.18;59.78;145807.06;5082046;28;20377;-64
2023/02/24 05:49:00;;;;;;;15.63;9.00;;;;;;;-6.30;60.16;145778.00;5073532;28;20412;-66
2023/02/24 05:51:34;;;;;;;13.82;8.98;;;;;;;-6.10;61.26;145826.00;5081432;28;20055;-64
2023/02/24 05:54:05;;;;;;;12.90;8.00;;;;;;;-6.29;60.93;145779.25;5081370;28;20087;-64
2023/02/24 05:56:32;;;;;;;12.40;8.02;;;;;;;-6.09;59.79;145829.78;5078224;28;20036;-64
2023/02/24 05:59:05;;;;;;;14.57;8.13;;;;;;;-6.12;59.50;145820.97;5075226;28;20108;-65
2023/02/24 06:01:33;;;;;;;14.25;8.60;;;;;;;-6.13;59.88;145819.72;5079944;28;20340;-65
2023/02/24 06:04:05;;;;;;;14.80;8.70;;;;;;;-6.03;60.73;145843.69;5080672;28;20047;-65
2023/02/24 06:06:36;;;;;;;14.02;9.15;;;;;;;-6.16;59.81;145812.09;5078622;28;20028;-64
2023/02/24 06:09:09;;;;;;;18.30;8.90;;;;;;;-6.11;60.85;145823.50;5079803;28;20208;-65
2023/02/24 06:11:36;;;;;;;14.38;8.38;;;;;;;-5.78;60.95;145904.38;5062631;28;20032;-64
2023/02/24 06:14:05;;;;;;;18.23;9.40;;;;;;;-5.75;60.00;145913.22;5080902;28;20317;-63
2023/02/24 06:16:33;;;;;;;14.88;9.13;;;;;;;-5.68;61.03;145928.41;5079608;28;20197;-65
2023/02/24 06:18:58;;;;;;;14.13;8.82;;;;;;;-5.67;60.34;145930.91;5059061;28;20070;-64
2023/02/24 06:21:34;;;;;;;18.48;9.43;;;;;;;-5.63;60.42;145941.03;5079091;28;20028;-65
2023/02/24 06:24:00;;;;;;;14.25;8.43;;;;;;;-5.45;61.21;145986.59;5080174;28;20108;-64
2023/02/24 06:26:32;;;;;;;15.32;8.77;;;;;;;-5.68;60.88;145929.66;5077708;28;20044;-65
2023/02/24 06:28:59;;;;;;;15.20;8.90;;;;;;;-5.49;59.43;145976.47;5079697;28;20028;-64
2023/02/24 06:31:26;;;;;;;15.77;9.35;;;;;;;-5.49;60.75;145976.47;5079379;28;20389;-63
2023/02/24 06:33:52;;;;;;;16.00;9.15;;;;;;;-5.34;61.62;146011.88;5079548;28;20020;-64
2023/02/24 06:36:19;;;;;;;18.02;9.55;;;;;;;-5.54;63.02;145963.84;5079826;28;20036;-64
2023/02/24 06:38:45;;;;;;;14.43;8.90;;;;;;;-5.40;63.40;145997.97;5075192;28;20040;-63
2023/02/24 06:41:11;;;;;;;18.35;10.07;;;;;;;-5.51;64.08;145971.41;5061796;28;20024;-63
2023/02/24 06:43:42;;;;;;;15.27;9.52;;;;;;;-5.70;67.80;145923.34;5062099;28;20044;-65
2023/02/24 06:46:09;;;;;;;15.40;9.98;;;;;;;-5.67;67.96;145930.91;5076765;28;20029;-63
2023/02/24 06:48:36;;;;;;;14.23;9.75;;;;;;;-5.64;69.25;145938.50;5079142;28;20020;-67
2023/02/24 06:51:17;;;;;;;17.08;10.30;;;;;;;-5.67;70.02;145932.22;5078568;28;20095;-63
2023/02/24 06:53:43;;;;;;;18.10;10.60;;;;;;;-5.67;69.79;145932.22;5079836;28;20021;-66
2023/02/24 06:56:16;;;;;;;18.80;11.02;;;;;;;-5.61;71.66;145946.13;5079325;28;20044;-64
2023/02/24 06:58:54;;;;;;;16.20;10.15;;;;;;;-5.76;72.05;145910.72;5080684;28;20028;-64
2023/02/24 07:01:24;;;;;;;16.00;9.38;;;;;;;-5.56;72.05;145960.03;5075303;28;20040;-64
2023/02/24 07:04:02;;;;;;;15.30;10.83;;;;;;;-5.62;72.62;145943.59;5075885;28;20024;-67
2023/02/24 07:06:33;;;;;;;17.00;11.07;;;;;;;-5.51;74.06;145971.41;5080444;28;20437;-64
2023/02/24 07:09:01;;;;;;;17.73;10.48;;;;;;;-5.34;73.82;146011.88;5079495;28;20099;-64
2023/02/24 07:11:29;;;;;;;18.15;11.13;;;;;;;-5.37;72.89;146006.84;5071028;28;20020;-64
2023/02/24 07:13:56;;;;;;;18.45;11.05;;;;;;;-5.63;74.55;145941.03;5077037;28;20016;-64
2023/02/24 07:16:27;;;;;;;19.77;11.15;;;;;;;-5.52;74.07;145968.88;5078884;28;20500;-64
2023/02/24 07:18:57;;;;;;;22.50;12.30;;;;;;;-5.60;74.58;145948.63;5076509;28;20035;-64
2023/02/24 07:21:25;;;;;;;20.42;11.43;;;;;;;-5.46;75.82;145984.03;5079198;28;20025;-64
2023/02/24 07:23:55;;;;;;;17.42;11.10;;;;;;;-5.57;74.45;145957.50;5080309;28;20020;-65
2023/02/24 07:26:23;;;;;;;21.55;11.82;;;;;;;-5.45;74.65;145985.34;5072354;28;20097;-63
2023/02/24 07:28:49;;;;;;;20.90;12.32;;;;;;;-5.43;75.10;145991.69;5080792;28;20201;-65
2023/02/24 07:31:17;;;;;;;19.55;12.02;;;;;;;-5.26;74.50;146032.13;5079282;28;20040;-63
2023/02/24 07:33:45;;;;;;;22.65;12.98;;;;;;;-5.26;74.30;146033.44;5079628;28;20028;-64
2023/02/24 07:36:21;;;;;;;20.23;11.07;;;;;;;-5.26;75.40;146032.13;5072688;28;20371;-64
2023/02/24 07:38:48;;;;;;;18.42;11.82;;;;;;;-5.16;74.06;146057.44;5079378;28;20421;-65
2023/02/24 07:41:14;;;;;;;19.05;11.40;;;;;;;-5.33;75.27;146015.72;5079437;28;20399;-64
2023/02/24 07:43:41;;;;;;;19.63;12.68;;;;;;;-5.22;75.59;146043.50;5080422;28;20028;-64
2023/02/24 07:46:14;;;;;;;20.83;11.75;;;;;;;-5.40;74.92;145997.97;5078705;28;20056;-64
2023/02/24 07:48:41;;;;;;;22.70;12.35;;;;;;;-5.34;76.94;146013.19;5079425;28;20064;-66
2023/02/24 07:51:08;;;;;;;19.52;10.98;;;;;;;-5.15;76.37;146059.97;5079316;28;20032;-65
2023/02/24 07:53:34;;;;;;;20.20;12.60;;;;;;;-5.09;75.33;146075.19;5061782;28;20024;-65
2023/02/24 07:56:09;;;;;;;16.67;11.02;;;;;;;-5.32;74.65;146018.22;5080112;28;20036;-64
2023/02/24 07:58:35;;;;;;;20.67;11.90;;;;;;;-4.98;75.67;146100.50;5079615;28;20028;-64
2023/02/24 08:01:07;;;;;;;19.58;12.52;;;;;;;-5.06;75.23;146082.78;5077369;28;20044;-64
2023/02/24 08:03:36;;;;;;;20.90;12.43;;;;;;;-4.96;76.19;146105.53;5077332;28;20044;-63
2023/02/24 08:06:14;;;;;;;19.80;11.43;;;;;;;-5.05;75.47;146085.28;5079711;28;20047;-63
2023/02/24 08:09:09;;;;;;;20.80;12.18;;;;;;;-4.98;75.17;146100.50;5079240;28;20085;-65
2023/02/24 08:11:35;;;;;;;21.33;12.27;;;;;;;-4.83;74.56;146138.47;5079209;28;20063;-64
2023/02/24 08:14:09;;;;;;;20.00;11.75;;;;;;;-4.67;74.91;146177.72;5080082;28;20024;-64
2023/02/24 08:16:38;;;;;;;19.70;12.60;;;;;;;-4.77;75.72;146152.41;5080535;28;20095;-64
2023/02/24 08:19:12;;;;;;;22.45;12.68;;;;;;;-4.58;75.51;146199.22;5079070;28;20028;-65
2023/02/24 08:21:46;;;;;;;19.80;11.60;;;;;;;-4.79;74.88;146148.56;5077548;28;20039;-63
2023/02/24 08:24:25;;;;;;;20.38;12.27;;;;;;;-4.79;75.12;146147.31;5076130;28;20029;-65
2023/02/24 08:27:05;;;;;;;19.17;11.98;;;;;;;-4.82;75.92;146140.97;5075065;28;20499;-64
2023/02/24 08:29:56;;;;;;;20.65;12.32;;;;;;;-4.55;74.63;146208.06;5075193;28;20119;-64
2023/02/24 08:32:43;;;;;;;17.88;11.52;;;;;;;-4.39;76.41;146247.34;5078492;28;20392;-64
2023/02/24 08:35:14;;;;;;;20.75;12.48;;;;;;;-4.43;75.50;146237.22;5075823;28;20092;-64
2023/02/24 08:37:54;;;;;;;19.15;12.27;;;;;;;-4.56;74.65;146205.56;5077390;28;20178;-64
2023/02/24 08:43:18;;;;;;;17.17;10.80;;;;;;;-4.53;74.78;146211.91;5078010;28;20373;-63
2023/02/24 08:46:16;;;;;;;21.17;12.50;;;;;;;-4.59;76.15;146196.69;5075718;28;20032;-64
2023/02/24 08:48:54;;;;;;;21.60;12.23;;;;;;;-4.45;75.39;146232.13;5069557;28;20040;-64
2023/02/24 08:51:29;;;;;;;19.05;12.35;;;;;;;-4.48;77.09;146224.53;5071512;28;20109;-64
2023/02/24 08:53:57;;;;;;;21.73;13.15;;;;;;;-4.26;75.26;146279.03;5076769;28;20028;-63
2023/02/24 08:56:28;;;;;;;22.05;12.57;;;;;;;-4.55;75.26;146206.81;5077422;28;20033;-64
2023/02/24 08:58:57;;;;;;;22.83;13.32;;;;;;;-4.28;75.41;146273.94;5076574;28;20024;-64
2023/02/24 09:01:26;;;;;;;21.15;12.55;;;;;;;-4.30;75.14;146267.59;5077224;28;20190;-65
2023/02/24 09:03:57;;;;;;;21.48;12.35;;;;;;;-4.25;76.15;146280.28;5078495;28;20021;-64
2023/02/24 09:06:45;;;;;;;22.42;13.00;;;;;;;-4.30;75.99;146268.88;5077900;28;20035;-63
2023/02/24 09:09:22;;;;;;;20.98;13.05;;;;;;;-4.34;76.12;146260.00;5075641;28;20029;-64
2023/02/24 09:11:54;;;;;;;17.63;12.77;;;;;;;-4.39;75.94;146246.06;5079747;28;20036;-65
2023/02/24 09:14:24;;;;;;;20.17;13.10;;;;;;;-4.29;75.45;146271.44;5076592;28;20339;-62
2023/02/24 09:17:02;;;;;;;24.38;13.32;;;;;;;-4.32;76.53;146263.78;5082990;28;20035;-64
2023/02/24 09:22:31;;;;;;;23.35;12.98;;;;;;;-4.36;75.54;146254.94;5081531;28;20372;-64
2023/02/24 09:25:18;;;;;;;19.50;12.93;;;;;;;-4.26;75.25;146277.72;5056243;28;20029;-65
2023/02/24 09:27:51;;;;;;;20.95;12.93;;;;;;;-4.08;76.43;146322.06;5077824;28;20039;-64
2023/02/24 09:30:34;;;;;;;22.48;13.40;;;;;;;-4.03;75.07;146336.00;5081408;28;20297;-65
2023/02/24 09:33:07;;;;;;;24.33;14.00;;;;;;;-4.01;76.77;146339.81;5081480;28;20300;-65
2023/02/24 09:35:35;;;;;;;22.02;13.70;;;;;;;-4.04;75.77;146333.47;5078679;28;20044;-65
2023/02/24 09:38:04;;;;;;;21.80;13.63;;;;;;;-4.03;76.35;146334.75;5082170;28;20056;-65
2023/02/24 09:40:39;;;;;;;20.33;13.13;;;;;;;-4.10;76.76;146318.28;5082104;28;20024;-64
2023/02/24 09:43:26;;;;;;;24.95;13.27;;;;;;;-4.25;76.42;146281.53;5081132;28;20328;-66
2023/02/24 09:46:15;;;;;;;19.58;12.88;;;;;;;-3.95;76.29;146353.75;5076502;28;20020;-69
2023/02/24 09:48:54;;;;;;;19.50;13.30;;;;;;;-3.89;76.39;146368.94;5075568;28;20362;-66
2023/02/24 09:51:21;;;;;;;21.60;13.57;;;;;;;-3.72;76.37;146410.75;5073823;28;20020;-66
2023/02/24 09:53:52;;;;;;;22.35;13.07;;;;;;;-3.92;76.28;146361.34;5081354;28;20037;-67
2023/02/24 09:56:43;;;;;;;26.48;14.05;;;;;;;-3.83;76.70;146385.41;5080559;28;20036;-65
2023/02/24 09:59:24;;;;;;;25.60;14.97;;;;;;;-3.65;76.44;146429.78;5078615;28;20037;-65
2023/02/24 10:02:08;;;;;;;23.23;13.57;;;;;;;-3.72;76.94;146412.03;5081186;28;20260;-66
2023/02/24 10:05:06;;;;;;;21.73;13.95;;;;;;;-3.62;76.82;146434.81;5082045;28;20293;-65
2023/02/24 10:07:38;;;;;;;22.60;14.05;;;;;;;-3.64;76.43;146432.28;5073714;28;20036;-65
2023/02/24 10:10:28;;;;;;;23.63;14.75;;;;;;;-3.85;76.30;146379.06;5074301;28;20071;-67
2023/02/24 10:13:29;;;;;;;23.02;14.07;;;;;;;-3.81;76.54;146390.47;5074997;28;20028;-65
2023/02/24 10:15:57;;;;;;;22.25;14.52;;;;;;;-3.89;76.21;146368.94;5071201;28;20051;-64
2023/02/24 10:18:43;;;;;;;24.88;14.93;;;;;;;-3.66;75.57;146425.97;5071194;28;20038;-66
2023/02/24 10:21:59;;;;;;;21.63;14.20;;;;;;;-3.56;75.45;146451.31;5079141;28;20028;-65
2023/02/24 10:24:28;;;;;;;22.55;14.43;;;;;;;-3.71;77.05;146414.53;5072380;28;20028;-66
2023/02/24 10:27:11;;;;;;;21.00;14.48;;;;;;;-3.58;76.28;146446.22;5077796;28;20036;-68
2023/02/24 10:30:04;;;;;;;23.80;14.05;;;;;;;-3.41;76.24;146488.06;5077635;28;20497;-66
2023/02/24 10:32:57;;;;;;;25.48;13.60;;;;;;;-3.61;76.51;146437.38;5078281;28;20020;-66
2023/02/24 10:35:25;;;;;;;26.02;14.75;;;;;;;-3.48;76.06;146471.59;5079854;28;20485;-66
2023/02/24 10:37:52;;;;;;;24.33;14.90;;;;;;;-3.54;76.32;146456.38;5080922;28;20032;-68
2023/02/24 10:40:43;;;;;;;23.38;13.48;;;;;;;-3.59;76.49;146442.44;5079588;28;20024;-66
2023/02/24 10:43:16;;;;;;;21.50;13.23;;;;;;;-3.35;76.79;146503.28;5061092;28;20028;-64
2023/02/24 10:45:46;;;;;;;22.80;14.25;;;;;;;-3.26;76.60;146523.53;5079724;28;20067;-64
2023/02/24 10:48:24;;;;;;;24.08;14.13;;;;;;;-3.13;76.16;146556.53;5067703;28;20041;-64
2023/02/24 10:50:53;;;;;;;27.52;14.38;;;;;;;-3.20;76.33;146538.78;5075516;28;20024;-63
2023/02/24 10:53:41;;;;;;;23.67;13.65;;;;;;;-3.23;76.25;146531.19;5078566;28;20037;-64
2023/02/24 10:56:25;;;;;;;22.23;14.00;;;;;;;-3.24;76.69;146528.63;5076475;28;20028;-62
2023/02/24 11:02:05;;;;;;;25.02;14.98;;;;;;;-3.38;76.06;146495.66;5065240;28;20051;-63
2023/02/24 11:05:03;;;;;;;26.83;15.80;;;;;;;-3.19;75.98;146541.28;5080157;28;20028;-63
2023/02/24 11:07:44;;;;;;;24.05;13.82;;;;;;;-3.26;76.10;146523.53;5080346;28;20025;-63
2023/02/24 11:10:24;;;;;;;23.07;14.63;;;;;;;-3.27;76.05;146522.28;5075625;28;20316;-63
2023/02/24 11:18:29;;;;;;;27.05;15.35;;;;;;;-3.07;75.54;146571.72;5078443;28;20197;-63
2023/02/24 11:21:06;;;;;;;26.45;14.45;;;;;;;-3.26;76.96;146523.53;5080097;28;20039;-61
2023/02/24 11:23:38;;;;;;;23.25;15.13;;;;;;;-2.98;76.35;146594.56;5056164;28;20029;-62
2023/02/24 11:26:37;;;;;;;22.60;15.68;;;;;;;-2.90;75.22;146613.56;5078549;28;20032;-61
2023/02/24 11:29:16;;;;;;;22.85;14.63;;;;;;;-3.21;74.77;146537.47;5014680;28;20419;-63
2023/02/24 11:31:56;;;;;;;21.80;13.57;;;;;;;-3.09;76.19;146566.69;5078063;28;20032;-64
2023/02/24 11:35:01;;;;;;;27.42;14.68;;;;;;;-3.19;76.11;146541.28;5076807;28;20392;-63
2023/02/24 11:37:47;;;;;;;26.50;15.73;;;;;;;-3.08;75.72;146567.94;5012591;28;20030;-63
2023/02/24 11:40:36;;;;;;;24.65;15.10;;;;;;;-3.01;75.27;146585.69;5023785;28;20050;-63
2023/02/24 11:43:12;;;;;;;28.02;15.45;;;;;;;-3.23;75.69;146532.44;5016088;28;20345;-64
2023/02/24 11:45:57;;;;;;;21.50;14.27;;;;;;;-2.96;75.12;146599.63;5010527;28;20043;-63
2023/02/24 11:48:34;;;;;;;24.25;14.77;;;;;;;-3.05;74.57;146576.81;5028260;28;20060;-63
2023/02/24 11:51:29;;;;;;;24.67;15.18;;;;;;;-2.77;75.46;146646.53;5026314;28;20033;-63
2023/02/24 11:54:03;;;;;;;23.48;14.75;;;;;;;-2.64;74.54;146678.28;5028583;28;20036;-61
2023/02/24 11:56:47;;;;;;;23.08;14.57;;;;;;;-2.99;73.61;146590.78;5034326;28;20078;-63
2023/02/24 11:59:38;;;;;;;26.38;15.30;;;;;;;-2.93;75.08;146604.72;5033812;28;20044;-64
2023/02/24 12:02:13;;;;;;;22.30;13.75;;;;;;;-2.84;73.64;146627.53;5015896;28;20037;-63
2023/02/24 12:05:12;;;;;;;26.20;14.50;;;;;;;-2.76;73.47;146647.81;5024802;28;20037;-63
2023/02/24 12:07:42;;;;;;;24.70;15.40;;;;;;;-2.73;74.30;146654.19;5026610;28;20072;-62
2023/02/24 12:10:15;;;;;;;26.05;15.23;;;;;;;-2.64;73.59;146676.97;5030182;28;20037;-63